Time;durP1;ratioP1;P1;durP2;ratioP2;P2;SDS_P1;SDS_P2;PMS_P1;PMS_P2;Temp;Humidity;BMP_temperature;BMP_pressure;BME280_temperature;BME280_humidity;BME280_pressure;Samples;Min_cycle;Max_cycle;Signal;HPM_P1;HPM_P2
2023/11/08 00:00:50;;;;;;;5.05;2.38;;;;;;;9.41;69.30;99067.91;5113189;27;20039;-67
2023/11/08 00:03:16;;;;;;;3.70;2.60;;;;;;;9.54;69.48;99096.22;5095384;28;20112;-68
2023/11/08 00:05:42;;;;;;;5.07;2.47;;;;;;;9.45;69.44;99079.19;5113190;28;20427;-66
2023/11/08 00:08:08;;;;;;;4.30;2.45;;;;;;;9.30;69.41;99068.84;5113269;28;20379;-67
2023/11/08 00:10:36;;;;;;;3.88;2.55;;;;;;;9.50;69.54;99092.97;5113476;28;20028;-68
2023/11/08 00:13:02;;;;;;;4.28;2.35;;;;;;;9.50;69.47;99102.78;5113644;28;20522;-67
2023/11/08 00:15:28;;;;;;;4.18;2.20;;;;;;;9.52;69.48;99099.03;5114803;28;20031;-66
2023/11/08 00:17:54;;;;;;;5.35;2.35;;;;;;;9.30;68.92;99060.81;5132771;28;20042;-68
2023/11/08 00:20:20;;;;;;;5.95;2.30;;;;;;;9.52;68.78;99099.03;5131141;28;20027;-66
2023/11/08 00:22:46;;;;;;;3.60;2.17;;;;;;;9.55;69.03;99092.56;5124190;27;20062;-67
2023/11/08 00:25:12;;;;;;;5.05;2.40;;;;;;;9.53;68.80;99094.53;5111397;28;20050;-68
2023/11/08 00:27:38;;;;;;;3.03;2.40;;;;;;;9.54;68.80;99101.56;5096114;28;20453;-67
2023/11/08 00:30:05;;;;;;;6.78;2.55;;;;;;;9.54;68.88;99102.41;5127162;27;20111;-68
2023/11/08 00:32:33;;;;;;;3.67;2.10;;;;;;;9.33;68.78;99063.22;5135416;27;20027;-68
2023/11/08 00:34:59;;;;;;;5.20;2.28;;;;;;;9.53;68.84;99099.88;5138000;27;20417;-67
2023/11/08 00:37:25;;;;;;;2.75;2.13;;;;;;;9.50;69.23;99100.97;5136286;27;20054;-67
2023/11/08 00:39:50;;;;;;;4.60;2.30;;;;;;;9.48;69.31;99092.25;5135338;27;20067;-66
2023/11/08 00:42:16;;;;;;;4.53;2.60;;;;;;;9.42;69.23;99082.13;5136685;27;20027;-68
2023/11/08 00:44:42;;;;;;;2.85;2.28;;;;;;;9.41;69.40;99083.94;5137889;27;20094;-67
2023/11/08 00:47:08;;;;;;;5.60;2.40;;;;;;;9.47;69.22;99102.09;5137544;27;20027;-67
2023/11/08 00:49:35;;;;;;;4.13;2.30;;;;;;;9.48;69.27;99100.28;5136199;27;20464;-67
2023/11/08 00:52:01;;;;;;;4.80;2.47;;;;;;;9.49;69.40;99096.63;5137063;27;20469;-67
2023/11/08 00:54:27;;;;;;;3.30;2.35;;;;;;;9.49;69.20;99104.63;5136139;27;20133;-68
2023/11/08 00:56:53;;;;;;;4.03;2.63;;;;;;;9.47;69.26;99090.56;5135473;27;20076;-67
2023/11/08 00:59:18;;;;;;;5.47;2.63;;;;;;;9.35;68.83;99071.13;5119387;27;20031;-68
2023/11/08 01:01:44;;;;;;;3.97;2.50;;;;;;;9.44;69.24;99097.00;5117571;27;20032;-66
2023/11/08 01:04:11;;;;;;;7.10;3.05;;;;;;;9.43;69.37;99103.34;5115554;28;20096;-67
2023/11/08 01:06:37;;;;;;;6.38;3.10;;;;;;;9.44;69.33;99102.38;5115395;28;20100;-67
2023/11/08 01:09:07;;;;;;;8.60;3.30;;;;;;;9.43;69.71;99100.66;5123809;27;20406;-67
2023/11/08 01:11:33;;;;;;;6.50;3.03;;;;;;;9.43;69.19;99099.84;5137051;27;20039;-66
2023/11/08 01:13:58;;;;;;;3.35;2.45;;;;;;;9.39;69.41;99104.59;5136612;27;20030;-67
2023/11/08 01:16:24;;;;;;;3.65;2.72;;;;;;;9.36;69.54;99096.00;5136305;27;20102;-68
2023/11/08 01:18:50;;;;;;;5.43;3.10;;;;;;;9.30;69.71;99108.09;5133738;27;20347;-67
2023/11/08 01:21:16;;;;;;;3.40;2.70;;;;;;;9.28;69.67;99104.66;5136530;27;20030;-67
2023/11/08 01:23:41;;;;;;;4.50;2.38;;;;;;;9.15;69.61;99086.19;5136487;27;20032;-66
2023/11/08 01:26:08;;;;;;;4.00;2.53;;;;;;;9.12;69.55;99086.47;5136028;27;20019;-68
2023/11/08 01:28:33;;;;;;;3.80;2.85;;;;;;;9.15;69.68;99096.88;5132840;27;20041;-67
2023/11/08 01:30:59;;;;;;;2.67;2.40;;;;;;;9.17;70.02;99100.28;5136558;27;20023;-67
2023/11/08 01:33:24;;;;;;;3.97;2.30;;;;;;;9.09;69.98;99090.25;5136997;27;20138;-68
2023/11/08 01:35:50;;;;;;;6.25;2.60;;;;;;;9.17;69.58;99103.78;5137337;27;20058;-67
2023/11/08 01:38:15;;;;;;;8.02;2.70;;;;;;;9.17;69.42;99095.78;5134050;27;20106;-67
2023/11/08 01:40:44;;;;;;;4.40;2.58;;;;;;;9.25;69.78;99097.78;5114980;28;20096;-67
2023/11/08 01:43:25;;;;;;;4.38;2.60;;;;;;;9.31;69.83;99101.75;5117316;27;20404;-67
2023/11/08 01:46:12;;;;;;;3.65;2.47;;;;;;;9.11;69.59;99082.09;5116366;28;20039;-67
2023/11/08 01:48:40;;;;;;;4.32;3.00;;;;;;;8.91;69.06;99041.94;5116159;27;20646;-66
2023/11/08 01:51:07;;;;;;;4.65;2.70;;;;;;;9.29;69.16;99109.91;5116177;27;20093;-67
2023/11/08 01:53:35;;;;;;;5.45;2.90;;;;;;;9.08;69.03;99063.69;5115889;27;20404;-67
2023/11/08 01:56:03;;;;;;;5.32;2.53;;;;;;;9.08;69.20;99074.38;5115516;28;20404;-67
2023/11/08 01:58:32;;;;;;;3.70;2.60;;;;;;;9.26;69.32;99103.97;5116098;27;20414;-67
2023/11/08 02:01:00;;;;;;;5.38;2.85;;;;;;;9.25;69.52;99110.28;5116307;27;20019;-67
2023/11/08 02:03:27;;;;;;;4.72;2.85;;;;;;;9.16;69.40;99111.91;5115824;27;20032;-67
2023/11/08 02:05:55;;;;;;;4.22;2.90;;;;;;;9.07;69.70;99110.91;5097756;28;20027;-67
2023/11/08 02:08:20;;;;;;;3.55;3.00;;;;;;;8.90;70.05;99099.84;5115923;27;20031;-67
2023/11/08 02:10:46;;;;;;;3.90;3.05;;;;;;;8.93;70.15;99112.09;5114097;28;20032;-66
2023/11/08 02:13:12;;;;;;;6.72;3.00;;;;;;;8.88;70.11;99106.28;5115308;28;20085;-66
2023/11/08 02:15:42;;;;;;;8.68;2.95;;;;;;;8.90;70.46;99112.34;5115231;28;20027;-68
2023/11/08 02:18:11;;;;;;;7.47;3.30;;;;;;;8.92;70.24;99115.72;5115982;27;20038;-67
2023/11/08 02:20:37;;;;;;;7.15;3.40;;;;;;;9.00;69.85;99121.28;5113844;28;20434;-67
2023/11/08 02:23:06;;;;;;;5.35;3.13;;;;;;;9.02;69.71;99118.44;5115225;28;20089;-66
2023/11/08 02:25:32;;;;;;;7.70;3.25;;;;;;;9.01;70.07;99108.75;5115005;28;20357;-67
2023/11/08 02:27:58;;;;;;;7.28;3.50;;;;;;;9.00;70.10;99105.25;5115532;27;20043;-67
2023/11/08 02:30:24;;;;;;;9.13;3.60;;;;;;;9.04;70.37;99111.16;5114961;28;20191;-67
2023/11/08 02:32:51;;;;;;;9.05;3.38;;;;;;;9.08;70.35;99117.94;5114842;28;20036;-66
2023/11/08 02:35:17;;;;;;;4.22;3.25;;;;;;;9.10;69.69;99107.97;5114728;28;20107;-67
2023/11/08 02:37:46;;;;;;;7.38;3.70;;;;;;;9.17;69.82;99110.97;5115327;27;20483;-67
2023/11/08 02:40:13;;;;;;;6.05;3.92;;;;;;;9.15;69.73;99118.25;5114645;27;20066;-67
2023/11/08 02:42:42;;;;;;;5.50;3.55;;;;;;;9.19;69.67;99111.69;5115338;27;20027;-67
2023/11/08 02:45:09;;;;;;;6.28;3.22;;;;;;;8.63;69.48;99022.97;5114327;28;20031;-66
2023/11/08 02:47:36;;;;;;;5.72;3.58;;;;;;;9.21;69.38;99107.06;5115279;27;20438;-68
2023/11/08 02:50:02;;;;;;;6.22;3.70;;;;;;;9.18;70.10;99104.66;5113360;28;20035;-68
2023/11/08 02:52:29;;;;;;;9.85;3.95;;;;;;;9.21;69.86;99114.19;5114372;28;20028;-67
2023/11/08 02:54:54;;;;;;;5.25;4.20;;;;;;;9.18;69.55;99101.97;5114337;28;20410;-68
2023/11/08 02:57:20;;;;;;;6.40;4.15;;;;;;;9.14;69.88;99103.19;5114353;28;20023;-67
2023/11/08 02:59:46;;;;;;;9.25;4.43;;;;;;;9.02;69.76;99095.28;5114007;27;20179;-66
2023/11/08 03:02:12;;;;;;;7.28;4.20;;;;;;;9.12;70.34;99103.34;5114652;28;20080;-69
2023/11/08 03:04:39;;;;;;;6.22;4.22;;;;;;;9.15;70.18;99110.22;5096867;28;20027;-67
2023/11/08 03:07:04;;;;;;;8.25;4.20;;;;;;;9.13;70.12;99105.03;5113191;28;20036;-68
2023/11/08 03:09:30;;;;;;;5.97;4.40;;;;;;;9.01;69.68;99082.03;5114629;27;20043;-67
2023/11/08 03:11:57;;;;;;;7.63;4.07;;;;;;;9.18;69.78;99105.47;5113449;28;20035;-66
2023/11/08 03:14:27;;;;;;;9.25;4.30;;;;;;;9.23;69.79;99126.47;5113787;28;20327;-67
2023/11/08 03:16:56;;;;;;;6.70;4.10;;;;;;;9.33;69.50;99121.16;5112884;28;20027;-67
2023/11/08 03:19:22;;;;;;;8.60;3.83;;;;;;;9.30;69.21;99121.44;5114381;27;20032;-66
2023/11/08 03:21:48;;;;;;;7.47;4.35;;;;;;;9.28;69.38;99124.22;5129521;27;20414;-67
2023/11/08 03:24:14;;;;;;;8.02;4.20;;;;;;;9.20;69.41;99113.38;5134034;27;20038;-68
2023/11/08 03:26:43;;;;;;;8.23;4.63;;;;;;;9.24;69.59;99120.13;5133960;27;20051;-67
2023/11/08 03:29:09;;;;;;;6.63;4.22;;;;;;;9.27;69.44;99127.88;5131385;27;20373;-67
2023/11/08 03:31:36;;;;;;;7.20;4.18;;;;;;;9.26;69.81;99128.00;5120024;27;20031;-68
2023/11/08 03:34:03;;;;;;;8.32;4.80;;;;;;;9.25;69.50;99129.84;5113405;28;20442;-66
2023/11/08 03:36:30;;;;;;;10.25;4.82;;;;;;;9.20;69.54;99132.06;5113590;28;20374;-67
2023/11/08 03:38:56;;;;;;;5.43;4.00;;;;;;;9.17;69.58;99132.34;5114672;27;20353;-68
2023/11/08 03:41:24;;;;;;;7.93;4.53;;;;;;;9.15;69.85;99129.78;5114543;27;20119;-68
2023/11/08 03:43:52;;;;;;;5.85;4.72;;;;;;;9.15;69.51;99136.94;5113253;28;20035;-68
2023/11/08 03:46:17;;;;;;;12.07;4.80;;;;;;;9.10;69.84;99125.81;5113281;28;20077;-68
2023/11/08 03:48:43;;;;;;;7.70;5.05;;;;;;;9.17;69.60;99138.50;5114254;27;20074;-67
2023/11/08 03:51:08;;;;;;;8.05;4.72;;;;;;;9.16;69.53;99127.94;5113353;28;20095;-68
2023/11/08 03:53:34;;;;;;;8.88;5.03;;;;;;;9.19;69.20;99141.91;5113270;28;20031;-67
2023/11/08 03:56:00;;;;;;;7.70;4.95;;;;;;;9.20;69.30;99132.06;5113421;27;20442;-68
2023/11/08 03:58:26;;;;;;;9.63;5.10;;;;;;;9.18;69.14;99134.84;5115429;27;20059;-67
2023/11/08 04:00:51;;;;;;;6.20;4.75;;;;;;;9.22;69.18;99134.59;5113460;28;20039;-67
2023/11/08 04:03:18;;;;;;;8.45;5.22;;;;;;;9.19;69.30;99136.56;5113183;28;20020;-67
2023/11/08 04:05:44;;;;;;;8.65;5.25;;;;;;;9.15;69.32;99128.91;5112980;28;20103;-68
2023/11/08 04:08:10;;;;;;;9.52;5.28;;;;;;;9.15;69.39;99131.59;5114125;27;20073;-68
2023/11/08 04:10:36;;;;;;;10.38;5.40;;;;;;;9.21;69.51;99135.56;5113313;28;20059;-67
2023/11/08 04:13:02;;;;;;;7.78;5.13;;;;;;;9.20;69.26;99148.09;5113380;28;20106;-68
2023/11/08 04:15:29;;;;;;;10.48;5.20;;;;;;;9.27;69.01;99143.91;5113044;28;20516;-67
2023/11/08 04:17:55;;;;;;;10.25;5.32;;;;;;;9.25;69.15;99140.53;5114109;28;20036;-67
2023/11/08 04:20:21;;;;;;;8.90;5.80;;;;;;;9.29;69.50;99138.44;5113148;28;20446;-67
2023/11/08 04:22:47;;;;;;;7.07;4.90;;;;;;;9.28;68.83;99144.75;5112802;28;20035;-67
2023/11/08 04:25:12;;;;;;;7.85;5.75;;;;;;;9.32;68.75;99146.19;5112026;28;20035;-68
2023/11/08 04:27:39;;;;;;;8.55;4.75;;;;;;;9.37;69.04;99156.47;5114188;28;20052;-68
2023/11/08 04:30:05;;;;;;;9.48;5.18;;;;;;;9.34;68.83;99161.09;5112872;28;20058;-67
2023/11/08 04:32:32;;;;;;;8.60;4.88;;;;;;;9.30;68.97;99159.66;5113166;28;20036;-67
2023/11/08 04:34:58;;;;;;;7.75;4.85;;;;;;;9.31;68.77;99156.00;5112671;28;20407;-68
2023/11/08 04:37:23;;;;;;;8.50;4.40;;;;;;;9.31;68.69;99156.00;5113749;28;20457;-66
2023/11/08 04:39:51;;;;;;;7.20;5.03;;;;;;;9.30;68.96;99156.16;5112562;28;20420;-66
2023/11/08 04:42:16;;;;;;;12.88;4.72;;;;;;;9.30;69.12;99154.31;5112560;28;20077;-66
2023/11/08 04:44:47;;;;;;;8.98;4.85;;;;;;;9.28;68.91;99150.94;5112821;28;20028;-70
2023/11/08 04:47:17;;;;;;;6.35;4.43;;;;;;;9.39;69.01;99157.16;5095876;28;20028;-71
2023/11/08 04:49:50;;;;;;;8.90;4.85;;;;;;;9.23;68.51;99126.47;5116326;28;20050;-65
2023/11/08 04:52:19;;;;;;;6.47;4.70;;;;;;;9.38;68.65;99160.81;5112555;28;20422;-67
2023/11/08 04:54:46;;;;;;;6.28;4.32;;;;;;;9.24;68.65;99135.31;5112621;28;20035;-66
2023/11/08 04:57:16;;;;;;;8.05;4.68;;;;;;;9.43;68.68;99175.47;5112281;28;20111;-73
2023/11/08 04:59:49;;;;;;;6.68;4.60;;;;;;;9.49;68.47;99168.78;5113598;28;20408;-66
2023/11/08 05:02:16;;;;;;;8.18;4.88;;;;;;;9.44;68.59;99163.81;5130603;28;20041;-66
2023/11/08 05:04:45;;;;;;;9.48;4.75;;;;;;;9.45;68.10;99172.69;5130225;28;20083;-67
2023/11/08 05:07:12;;;;;;;9.48;5.15;;;;;;;9.45;68.36;99168.19;5132113;28;20035;-66
2023/11/08 05:09:38;;;;;;;9.00;5.10;;;;;;;9.19;68.61;99130.38;5131422;27;20035;-67
2023/11/08 05:12:06;;;;;;;8.07;5.07;;;;;;;9.50;68.73;99172.28;5092507;28;20348;-66
2023/11/08 05:14:32;;;;;;;10.48;4.38;;;;;;;9.50;68.00;99174.94;5094763;28;20100;-66
2023/11/08 05:16:57;;;;;;;6.38;4.32;;;;;;;9.33;67.98;99143.38;5096176;28;20051;-66
2023/11/08 05:19:22;;;;;;;9.82;4.63;;;;;;;9.54;67.75;99179.91;5094704;28;20032;-66
2023/11/08 05:21:49;;;;;;;7.90;5.05;;;;;;;9.54;67.75;99177.22;5099231;27;20103;-67
2023/11/08 05:24:15;;;;;;;9.27;4.43;;;;;;;9.54;67.95;99179.06;5115859;28;20042;-65
2023/11/08 05:26:41;;;;;;;7.38;4.18;;;;;;;9.56;67.99;99174.44;5115920;28;20047;-67
2023/11/08 05:29:07;;;;;;;13.40;4.75;;;;;;;9.56;67.94;99177.94;5115934;27;20096;-66
2023/11/08 05:31:34;;;;;;;8.02;4.35;;;;;;;9.59;67.28;99180.34;5115737;27;20042;-66
2023/11/08 05:34:03;;;;;;;9.38;4.30;;;;;;;9.60;67.99;99178.53;5116102;28;20046;-66
2023/11/08 05:36:29;;;;;;;8.88;4.35;;;;;;;9.62;67.28;99177.41;5116601;27;20027;-65
2023/11/08 05:38:55;;;;;;;8.05;3.92;;;;;;;9.63;67.38;99181.75;5115694;28;20045;-67
2023/11/08 05:41:21;;;;;;;8.07;4.63;;;;;;;9.67;67.12;99186.88;5115504;28;20446;-65
2023/11/08 05:43:47;;;;;;;7.90;4.50;;;;;;;9.69;67.34;99180.38;5114904;28;20034;-65
2023/11/08 05:46:13;;;;;;;9.20;4.57;;;;;;;9.69;66.93;99174.22;5115823;28;20028;-67
2023/11/08 05:48:39;;;;;;;9.68;4.72;;;;;;;9.68;67.00;99178.69;5115396;27;20080;-69
2023/11/08 05:51:06;;;;;;;10.32;4.90;;;;;;;9.77;67.21;99190.41;5126452;27;20355;-68
2023/11/08 05:53:32;;;;;;;12.80;4.82;;;;;;;9.77;66.77;99193.94;5136107;27;20358;-67
2023/11/08 05:55:58;;;;;;;8.80;4.63;;;;;;;9.79;66.74;99192.97;5135258;27;20091;-67
2023/11/08 05:58:23;;;;;;;9.27;4.47;;;;;;;9.81;66.47;99188.31;5135660;27;20027;-65
2023/11/08 06:00:49;;;;;;;12.40;4.80;;;;;;;9.80;66.63;99195.47;5135735;27;20026;-65
2023/11/08 06:03:15;;;;;;;7.30;4.40;;;;;;;9.77;66.56;99188.59;5134150;27;20031;-65
2023/11/08 06:05:42;;;;;;;12.60;4.57;;;;;;;9.85;66.40;99198.59;5135893;27;20035;-65
2023/11/08 06:08:08;;;;;;;8.85;4.72;;;;;;;9.88;66.32;99209.00;5135607;27;20133;-66
2023/11/08 06:10:34;;;;;;;8.57;5.00;;;;;;;9.87;66.03;99199.31;5133218;27;20031;-67
2023/11/08 06:13:01;;;;;;;6.63;4.65;;;;;;;9.75;66.01;99181.69;5134656;27;20217;-66
2023/11/08 06:15:26;;;;;;;6.00;4.25;;;;;;;9.65;65.76;99168.28;5135912;27;20449;-66
2023/11/08 06:17:54;;;;;;;8.00;4.88;;;;;;;9.88;66.08;99206.34;5127486;27;20035;-64
2023/11/08 06:20:20;;;;;;;10.20;4.93;;;;;;;9.84;66.07;99210.28;5114871;28;20115;-66
2023/11/08 06:22:47;;;;;;;9.52;5.00;;;;;;;9.89;66.13;99210.75;5114925;28;20050;-66
2023/11/08 06:25:13;;;;;;;7.47;4.15;;;;;;;9.87;65.69;99214.50;5113650;28;20358;-65
2023/11/08 06:27:38;;;;;;;10.32;4.57;;;;;;;9.85;66.07;99203.94;5114975;28;20047;-65
2023/11/08 06:30:04;;;;;;;5.90;4.28;;;;;;;9.84;65.99;99218.28;5114459;28;20028;-67
2023/11/08 06:32:31;;;;;;;8.85;4.43;;;;;;;9.84;65.90;99215.63;5115888;27;20023;-66
2023/11/08 06:35:00;;;;;;;6.78;4.88;;;;;;;9.86;66.05;99223.53;5115615;27;20093;-65
2023/11/08 06:37:27;;;;;;;10.13;4.80;;;;;;;9.84;65.75;99204.94;5114704;28;20027;-66
2023/11/08 06:39:53;;;;;;;8.57;4.93;;;;;;;9.94;65.64;99214.84;5114399;28;20046;-66
2023/11/08 06:42:18;;;;;;;12.30;8.20;;;;;;;9.96;65.38;99226.25;5114240;28;20027;-66
2023/11/08 06:44:44;;;;;;;9.73;5.28;;;;;;;10.02;65.25;99218.53;5114461;28;20427;-66
2023/11/08 06:47:11;;;;;;;6.40;4.57;;;;;;;10.01;65.28;99211.47;5115616;27;20027;-66
2023/11/08 06:49:37;;;;;;;7.15;4.28;;;;;;;9.85;65.23;99187.91;5132445;27;20050;-65
2023/11/08 06:52:04;;;;;;;6.90;4.05;;;;;;;10.04;65.05;99211.22;5134189;27;20031;-67
2023/11/08 06:54:33;;;;;;;7.47;4.03;;;;;;;10.10;65.30;99222.34;5134704;27;20069;-66
2023/11/08 06:56:59;;;;;;;12.27;4.90;;;;;;;10.11;65.46;99222.19;5134688;27;20055;-65
2023/11/08 06:59:25;;;;;;;5.63;4.60;;;;;;;10.16;65.05;99211.09;5132601;27;20062;-65
2023/11/08 07:01:50;;;;;;;8.85;4.95;;;;;;;10.20;65.37;99224.06;5134481;27;20105;-67
2023/11/08 07:04:16;;;;;;;6.55;4.50;;;;;;;10.25;64.33;99226.34;5134712;27;20435;-67
2023/11/08 07:06:42;;;;;;;7.10;4.43;;;;;;;10.24;64.71;99221.13;5134410;27;20434;-65
2023/11/08 07:09:09;;;;;;;7.50;4.50;;;;;;;10.27;64.48;99220.84;5131556;27;20033;-67
2023/11/08 07:11:35;;;;;;;8.35;4.63;;;;;;;10.33;64.43;99225.63;5134134;27;20453;-67
2023/11/08 07:14:00;;;;;;;7.10;4.40;;;;;;;10.14;63.93;99187.16;5133625;27;20034;-65
2023/11/08 07:16:26;;;;;;;9.60;4.70;;;;;;;10.43;63.90;99236.41;5134201;27;20118;-66
2023/11/08 07:18:53;;;;;;;8.98;4.10;;;;;;;10.42;63.57;99234.69;5132190;27;20362;-66
2023/11/08 07:21:19;;;;;;;10.38;4.82;;;;;;;10.46;63.44;99230.75;5114734;27;20051;-65
2023/11/08 07:23:45;;;;;;;9.35;4.03;;;;;;;10.48;63.66;99226.13;5113488;28;20092;-66
2023/11/08 07:26:15;;;;;;;7.25;3.90;;;;;;;10.38;62.80;99217.19;5113645;28;20123;-66
2023/11/08 07:28:43;;;;;;;8.30;4.10;;;;;;;10.48;63.04;99237.69;5114978;27;20031;-65
2023/11/08 07:31:09;;;;;;;8.40;3.90;;;;;;;10.48;63.20;99245.72;5112598;28;20033;-66
2023/11/08 07:33:36;;;;;;;9.15;4.50;;;;;;;10.46;63.54;99241.47;5113337;28;20804;-65
2023/11/08 07:36:02;;;;;;;7.05;4.50;;;;;;;10.24;63.30;99211.25;5112896;28;20024;-66
2023/11/08 07:38:28;;;;;;;8.43;4.20;;;;;;;10.40;63.20;99242.88;5112429;28;20046;-67
2023/11/08 07:40:53;;;;;;;8.57;3.75;;;;;;;10.44;62.98;99238.94;5113504;28;20423;-66
2023/11/08 07:43:19;;;;;;;5.90;4.05;;;;;;;10.41;63.07;99243.72;5113934;27;20426;-66
2023/11/08 07:45:48;;;;;;;7.40;3.83;;;;;;;10.42;62.89;99250.75;5112630;28;20374;-65
2023/11/08 07:48:14;;;;;;;9.63;3.78;;;;;;;10.39;62.98;99243.84;5113345;28;20059;-66
2023/11/08 07:50:41;;;;;;;8.70;4.82;;;;;;;10.35;63.54;99242.41;5113800;28;20020;-66
2023/11/08 07:53:07;;;;;;;8.88;4.07;;;;;;;10.46;63.42;99241.47;5113892;27;20035;-66
2023/11/08 07:55:33;;;;;;;6.15;4.10;;;;;;;10.38;62.77;99227.91;5113142;28;20032;-66
2023/11/08 07:58:00;;;;;;;9.50;4.47;;;;;;;10.57;62.80;99237.81;5112129;28;20072;-66
2023/11/08 08:00:26;;;;;;;9.27;4.43;;;;;;;10.62;62.36;99249.00;5113398;28;20043;-66
2023/11/08 08:02:53;;;;;;;12.48;3.90;;;;;;;10.68;62.67;99252.91;5114013;28;20041;-66
2023/11/08 08:05:19;;;;;;;8.52;4.30;;;;;;;10.73;62.48;99254.19;5112643;28;20035;-66
2023/11/08 08:07:44;;;;;;;7.07;4.10;;;;;;;10.64;62.31;99233.63;5114415;27;20081;-66
2023/11/08 08:10:12;;;;;;;6.35;4.55;;;;;;;10.79;62.06;99258.16;5112951;28;20100;-67
2023/11/08 08:12:38;;;;;;;9.93;4.60;;;;;;;10.85;62.15;99262.09;5109383;28;20023;-69
2023/11/08 08:15:05;;;;;;;10.50;5.00;;;;;;;10.85;62.07;99267.44;5113608;28;20023;-68
2023/11/08 08:17:34;;;;;;;10.95;4.55;;;;;;;10.79;61.84;99258.16;5112565;28;20118;-68
2023/11/08 08:20:01;;;;;;;10.57;4.75;;;;;;;10.82;62.09;99273.94;5112711;28;20467;-69
2023/11/08 08:22:29;;;;;;;12.57;4.47;;;;;;;10.68;62.37;99264.50;5112730;28;20031;-70
2023/11/08 08:24:55;;;;;;;8.13;4.40;;;;;;;10.56;62.05;99284.31;5111680;28;20031;-69
2023/11/08 08:27:21;;;;;;;6.07;3.90;;;;;;;10.34;62.66;99265.66;5110889;28;20470;-69
2023/11/08 08:29:47;;;;;;;8.38;4.05;;;;;;;10.31;62.84;99270.41;5120995;28;20096;-68
2023/11/08 08:32:12;;;;;;;8.38;4.30;;;;;;;10.31;62.71;99283.78;5133429;27;20030;-69
2023/11/08 08:34:38;;;;;;;10.32;4.82;;;;;;;10.31;63.10;99275.75;5120141;27;20404;-67
2023/11/08 08:37:06;;;;;;;12.05;4.30;;;;;;;10.13;62.48;99247.00;5107414;28;20024;-71
2023/11/08 08:39:32;;;;;;;9.32;4.47;;;;;;;10.39;62.73;99294.69;5107653;28;20365;-69
2023/11/08 08:41:58;;;;;;;8.43;4.43;;;;;;;10.40;62.21;99285.69;5104173;27;20024;-73
2023/11/08 08:44:24;;;;;;;8.98;4.50;;;;;;;10.46;62.15;99290.50;5112158;28;20368;-71
2023/11/08 08:46:51;;;;;;;10.32;5.05;;;;;;;10.55;62.02;99277.28;5110709;28;20027;-72
2023/11/08 08:49:17;;;;;;;8.57;4.32;;;;;;;10.63;61.44;99275.59;5114552;28;20039;-66
2023/11/08 08:51:42;;;;;;;7.13;4.20;;;;;;;10.74;60.71;99282.66;5116488;28;20378;-70
2023/11/08 08:54:08;;;;;;;9.63;4.38;;;;;;;10.73;60.70;99278.31;5112922;27;20046;-71
2023/11/08 08:56:34;;;;;;;6.40;4.43;;;;;;;10.80;60.38;99286.63;5115439;28;20032;-72
2023/11/08 08:59:00;;;;;;;9.10;4.75;;;;;;;10.88;60.16;99278.75;5115408;28;20035;-70
2023/11/08 09:01:26;;;;;;;9.45;4.22;;;;;;;10.84;60.11;99271.97;5116013;28;20092;-72
2023/11/08 09:03:52;;;;;;;9.98;4.75;;;;;;;10.82;59.96;99262.38;5114843;28;20036;-68
2023/11/08 09:06:20;;;;;;;8.10;4.70;;;;;;;10.91;60.10;99267.75;5128070;27;20095;-66
2023/11/08 09:08:46;;;;;;;11.23;4.60;;;;;;;10.99;59.54;99242.94;5127631;27;20039;-70
2023/11/08 09:11:11;;;;;;;7.15;4.35;;;;;;;11.38;58.79;99276.06;5095221;28;20358;-71
2023/11/08 09:13:37;;;;;;;7.25;3.88;;;;;;;11.56;58.18;99282.38;5110820;28;20137;-69
2023/11/08 09:16:07;;;;;;;6.43;4.10;;;;;;;11.63;58.13;99271.94;5114893;27;20111;-69
2023/11/08 09:18:36;;;;;;;6.95;3.75;;;;;;;11.57;57.24;99240.34;5129658;27;20446;-69
2023/11/08 09:21:03;;;;;;;7.03;4.00;;;;;;;11.63;56.82;99234.38;5135482;27;20034;-69
2023/11/08 09:23:30;;;;;;;5.63;3.85;;;;;;;11.94;56.98;99268.19;5134496;27;20031;-69
2023/11/08 09:25:57;;;;;;;8.90;4.07;;;;;;;11.87;56.46;99241.94;5117084;27;20027;-69
2023/11/08 09:28:22;;;;;;;7.18;4.18;;;;;;;12.13;56.17;99275.34;5115284;28;20070;-70
2023/11/08 09:30:48;;;;;;;6.85;3.47;;;;;;;12.15;55.78;99274.19;5115797;27;20035;-68
2023/11/08 09:33:13;;;;;;;8.15;3.58;;;;;;;12.22;55.70;99270.91;5115654;28;20024;-67
2023/11/08 09:35:39;;;;;;;7.45;3.45;;;;;;;12.26;55.52;99277.69;5115731;27;20036;-68
2023/11/08 09:38:04;;;;;;;12.00;4.10;;;;;;;12.27;55.43;99271.31;5115898;27;20123;-69
2023/11/08 09:40:31;;;;;;;8.68;3.70;;;;;;;12.33;55.30;99286.84;5115028;28;20374;-67
2023/11/08 09:42:58;;;;;;;11.52;3.58;;;;;;;12.28;55.09;99281.06;5114691;28;20020;-70
2023/11/08 09:45:30;;;;;;;8.88;3.65;;;;;;;12.25;55.33;99276.84;5115444;28;20077;-67
2023/11/08 09:47:56;;;;;;;6.30;3.67;;;;;;;12.05;55.34;99243.88;5114802;28;20519;-69
2023/11/08 09:50:23;;;;;;;6.85;3.85;;;;;;;12.27;55.11;99268.63;5113999;28;20024;-72
2023/11/08 09:52:49;;;;;;;5.50;3.20;;;;;;;12.13;54.82;99268.16;5120255;27;20050;-69
2023/11/08 09:55:15;;;;;;;7.30;3.30;;;;;;;12.06;55.33;99277.78;5116234;27;20024;-71
2023/11/08 09:57:41;;;;;;;8.85;3.35;;;;;;;11.99;55.51;99276.63;5116456;27;20024;-67
2023/11/08 10:00:08;;;;;;;8.32;3.65;;;;;;;11.75;55.41;99233.25;5116226;27;20043;-68
2023/11/08 10:02:36;;;;;;;5.93;3.25;;;;;;;11.92;55.55;99245.03;5113893;28;20058;-66
2023/11/08 10:05:04;;;;;;;6.68;3.53;;;;;;;12.17;55.06;99269.53;5111750;28;20032;-71
2023/11/08 10:07:30;;;;;;;7.30;3.17;;;;;;;12.18;54.91;99265.03;5114196;28;20031;-67
2023/11/08 10:09:55;;;;;;;9.95;3.80;;;;;;;12.20;55.07;99269.22;5114045;28;20059;-68
2023/11/08 10:12:21;;;;;;;9.07;3.35;;;;;;;12.23;55.10;99273.47;5110630;27;20040;-69
2023/11/08 10:15:02;;;;;;;8.55;3.65;;;;;;;12.28;55.16;99262.25;5101600;28;20032;-70
2023/11/08 10:17:39;;;;;;;7.60;3.83;;;;;;;12.36;54.66;99270.44;5126869;27;20093;-72
2023/11/08 10:20:08;;;;;;;8.00;4.07;;;;;;;12.41;54.65;99268.16;5125414;27;20036;-71
2023/11/08 10:22:34;;;;;;;7.32;3.88;;;;;;;12.41;54.17;99268.16;5102412;28;20032;-69
2023/11/08 10:25:02;;;;;;;8.32;3.83;;;;;;;12.45;54.46;99268.72;5093701;28;20028;-70
2023/11/08 10:27:34;;;;;;;10.30;3.92;;;;;;;12.41;54.22;99254.72;5094422;28;20131;-70
2023/11/08 10:30:16;;;;;;;8.23;3.20;;;;;;;12.55;54.28;99271.34;5113983;28;20036;-69
2023/11/08 10:32:43;;;;;;;6.85;3.17;;;;;;;12.41;54.05;99270.84;5114621;28;20032;-68
2023/11/08 10:35:19;;;;;;;7.45;3.40;;;;;;;12.45;54.41;99266.84;5118763;27;20042;-70
2023/11/08 10:37:48;;;;;;;9.93;3.97;;;;;;;12.30;53.95;99247.72;5134273;27;20087;-69
2023/11/08 10:40:14;;;;;;;8.88;3.92;;;;;;;12.37;54.16;99258.72;5134479;27;20480;-70
2023/11/08 10:42:48;;;;;;;8.75;3.22;;;;;;;12.31;54.17;99262.00;5131906;27;20035;-69
2023/11/08 10:45:14;;;;;;;6.38;3.00;;;;;;;12.22;54.11;99246.75;5117359;27;20034;-69
2023/11/08 10:47:40;;;;;;;6.15;2.80;;;;;;;12.22;54.21;99249.44;5113936;27;20035;-71
2023/11/08 10:50:07;;;;;;;12.45;4.07;;;;;;;12.24;54.66;99263.56;5095723;28;20032;-71
2023/11/08 10:52:35;;;;;;;10.93;3.85;;;;;;;12.01;54.56;99224.56;5113220;28;20042;-73
2023/11/08 10:55:04;;;;;;;12.20;4.07;;;;;;;12.20;54.56;99258.50;5115218;27;20110;-72
2023/11/08 10:57:33;;;;;;;10.77;3.90;;;;;;;12.19;54.47;99250.63;5112089;28;20372;-72
2023/11/08 11:00:01;;;;;;;11.90;3.80;;;;;;;12.19;54.44;99262.19;5111838;28;20092;-72
2023/11/08 11:02:43;;;;;;;6.20;3.20;;;;;;;12.23;55.03;99264.56;5113876;28;20361;-73
2023/11/08 11:05:10;;;;;;;8.85;3.60;;;;;;;12.14;54.71;99258.25;5113482;28;20354;-68
2023/11/08 11:07:41;;;;;;;9.20;3.22;;;;;;;12.14;54.71;99256.41;5113467;28;20371;-69
2023/11/08 11:10:08;;;;;;;5.53;3.15;;;;;;;12.10;54.97;99256.84;5121266;27;20476;-71
2023/11/08 11:12:42;;;;;;;6.57;3.20;;;;;;;12.08;55.29;99258.84;5133561;27;20402;-64
2023/11/08 11:15:16;;;;;;;6.07;3.53;;;;;;;12.03;55.10;99259.28;5110976;27;20050;-67
2023/11/08 11:17:48;;;;;;;4.90;3.40;;;;;;;12.06;55.36;99250.94;5112907;28;20477;-67
2023/11/08 11:20:18;;;;;;;8.73;3.72;;;;;;;12.07;55.22;99247.28;5113362;28;20094;-67
2023/11/08 11:22:43;;;;;;;9.32;3.70;;;;;;;12.03;55.07;99245.84;5113213;28;20184;-66
2023/11/08 11:25:13;;;;;;;10.13;3.80;;;;;;;12.01;55.25;99247.84;5112779;28;20493;-67
2023/11/08 11:27:44;;;;;;;8.07;3.42;;;;;;;11.99;55.47;99245.28;5112691;28;20048;-67
2023/11/08 11:30:22;;;;;;;12.00;4.03;;;;;;;12.03;55.66;99245.84;5116425;27;20062;-68
2023/11/08 11:32:51;;;;;;;5.68;3.47;;;;;;;11.81;55.36;99215.69;5112541;28;20543;-66
2023/11/08 11:35:17;;;;;;;9.85;3.53;;;;;;;11.87;55.41;99247.31;5113850;27;20076;-66